Time;durP1;ratioP1;P1;durP2;ratioP2;P2;SDS_P1;SDS_P2;PMS_P1;PMS_P2;Temp;Humidity;BMP_temperature;BMP_pressure;BME280_temperature;BME280_humidity;BME280_pressure;Samples;Min_cycle;Max_cycle;Signal;HPM_P1;HPM_P2
2022/10/17 00:01:55;;;;;;;5.55;3.22;;;;;;;7.97;93.34;99697.84;4942404;28;20062;-82
2022/10/17 00:04:28;;;;;;;4.38;2.50;;;;;;;7.95;93.04;99695.25;4944316;28;20367;-82
2022/10/17 00:06:59;;;;;;;5.15;2.90;;;;;;;8.08;92.67;99703.72;4941174;28;20047;-82
2022/10/17 00:09:30;;;;;;;4.35;3.10;;;;;;;7.89;93.33;99658.09;4945016;28;20331;-82
2022/10/17 00:12:07;;;;;;;10.55;4.20;;;;;;;7.99;94.02;99670.06;4937958;27;20072;-83
2022/10/17 00:14:39;;;;;;;6.28;3.08;;;;;;;8.20;94.36;99674.06;4949980;27;20044;-83
2022/10/17 00:17:10;;;;;;;4.30;3.00;;;;;;;8.19;94.15;99668.00;4950338;28;20046;-83
2022/10/17 00:19:45;;;;;;;8.80;3.55;;;;;;;8.21;94.35;99666.25;4941238;28;20064;-83
2022/10/17 00:22:17;;;;;;;3.70;2.80;;;;;;;7.30;94.03;99517.69;4939133;28;20056;-85
2022/10/17 00:28:25;;;;;;;3.55;2.53;;;;;;;7.96;93.68;99628.47;4963951;28;20053;-85
2022/10/17 00:31:54;;;;;;;;;;;;;;;;;;;;;
2022/10/17 00:34:41;;;;;;;;;;;;;;;8.33;94.93;99685.13;4947418;27;20063;-86
2022/10/17 00:37:48;;;;;;;4.38;2.45;;;;;;;8.29;93.81;99678.28;4857712;28;19979;-85
2022/10/17 00:44:14;;;;;;;4.90;3.15;;;;;;;7.32;93.11;99511.59;4866728;28;20405;-86
2022/10/17 00:46:57;;;;;;;6.15;2.90;;;;;;;8.26;94.07;99650.53;4850185;28;20054;-85
2022/10/17 00:52:37;;;;;;;5.10;2.92;;;;;;;7.77;93.76;99584.56;4852076;28;20069;-84
2022/10/17 00:55:32;;;;;;;5.10;2.60;;;;;;;8.02;93.52;99607.56;4864249;28;20054;-86
2022/10/17 01:39:28;;;;;;;13.75;3.75;;;;;;;8.20;94.44;99570.81;4607567;29;21092;-84
2022/10/17 01:42:30;;;;;;;5.03;2.70;;;;;;;8.37;94.56;99583.53;4628729;29;20051;-83
2022/10/17 01:45:24;;;;;;;6.18;2.92;;;;;;;7.85;93.62;99476.94;4655853;29;20059;-84
2022/10/17 01:48:22;;;;;;;5.22;3.10;;;;;;;8.23;92.72;99519.59;4689955;29;20069;-83
2022/10/17 01:51:01;;;;;;;5.18;2.88;;;;;;;8.21;92.92;99504.88;4761776;29;20281;-82
2022/10/17 01:53:47;;;;;;;3.42;2.55;;;;;;;8.18;91.44;99489.31;4765315;29;20063;-81
2022/10/17 01:56:21;;;;;;;3.53;2.45;;;;;;;8.54;91.20;99533.78;4766852;29;20287;-83
2022/10/17 01:59:00;;;;;;;3.78;2.45;;;;;;;7.86;91.33;99413.63;4781158;29;20064;-82
2022/10/17 02:01:37;;;;;;;6.05;2.80;;;;;;;8.50;91.95;99482.66;4798349;28;20055;-83
2022/10/17 02:04:15;;;;;;;8.15;2.72;;;;;;;7.96;90.50;99394.34;4793296;28;20275;-82
2022/10/17 02:06:46;;;;;;;5.00;2.30;;;;;;;8.21;89.26;99458.03;4804572;28;20053;-83
2022/10/17 02:09:23;;;;;;;3.00;2.42;;;;;;;7.87;88.70;99404.94;4836294;28;20077;-82
2022/10/17 02:12:13;;;;;;;6.97;2.75;;;;;;;8.19;88.17;99485.84;4880469;28;20053;-82
2022/10/17 02:15:03;;;;;;;5.63;2.80;;;;;;;7.84;89.00;99462.19;4923885;28;20049;-85
2022/10/17 02:18:09;;;;;;;5.70;2.58;;;;;;;7.11;89.60;99388.09;4931911;28;20075;-85
2022/10/17 02:20:57;;;;;;;7.32;2.92;;;;;;;7.97;91.04;99528.75;4923311;28;20062;-84
2022/10/17 02:24:08;;;;;;;23.08;10.90;;;;;;;7.39;92.93;99431.81;4928854;28;20651;-84
2022/10/17 02:27:03;;;;;;;29.90;15.55;;;;;;;7.48;94.11;99459.38;4941444;28;20047;-85
2022/10/17 02:29:57;;;;;;;8.80;4.95;;;;;;;7.19;94.85;99423.44;4919736;28;20052;-84
2022/10/17 02:32:39;;;;;;;10.75;4.93;;;;;;;7.91;94.88;99536.63;4934067;28;20047;-83
2022/10/17 02:35:24;;;;;;;9.27;5.03;;;;;;;7.41;95.51;99463.78;4916936;28;20059;-83
2022/10/17 02:48:39;;;;;;;5.18;3.10;;;;;;;7.68;97.14;99467.69;4944319;28;20045;-83
2022/10/17 02:51:33;;;;;;;5.60;3.72;;;;;;;7.43;96.72;99414.41;4945665;27;20074;-85
2022/10/17 02:54:35;;;;;;;6.47;3.80;;;;;;;7.04;96.36;99349.22;4970564;28;20197;-85
2022/10/17 02:57:43;;;;;;;4.80;3.15;;;;;;;7.43;96.44;99424.78;4889144;28;21050;-86
2022/10/17 03:00:16;;;;;;;8.18;4.00;;;;;;;7.61;95.75;99476.47;4934892;28;20057;-83
2022/10/17 03:02:48;;;;;;;5.38;3.13;;;;;;;7.89;95.26;99509.81;4943107;28;20044;-84
2022/10/17 03:05:24;;;;;;;3.47;2.35;;;;;;;7.90;94.62;99504.56;4942989;28;20044;-84
2022/10/17 03:07:55;;;;;;;3.05;2.05;;;;;;;7.43;93.79;99401.41;4935335;28;20067;-84
2022/10/17 03:10:26;;;;;;;5.75;1.95;;;;;;;7.30;93.49;99393.81;4944675;28;20376;-84
2022/10/17 03:12:59;;;;;;;4.13;1.80;;;;;;;7.81;92.89;99477.88;4945254;28;20051;-83
2022/10/17 03:15:30;;;;;;;1.83;1.55;;;;;;;7.51;91.24;99441.09;4944113;28;20044;-83
2022/10/17 03:18:01;;;;;;;6.68;3.28;;;;;;;7.60;91.04;99463.50;4944581;28;20044;-84
2022/10/17 03:20:33;;;;;;;2.38;1.58;;;;;;;7.43;91.46;99471.56;4944459;28;20077;-83
2022/10/17 03:23:04;;;;;;;2.70;1.70;;;;;;;6.97;89.85;99435.94;4935774;28;20049;-84
2022/10/17 03:25:35;;;;;;;5.00;2.20;;;;;;;6.89;91.64;99444.69;4945347;28;20228;-83
2022/10/17 03:28:06;;;;;;;4.25;2.03;;;;;;;6.64;92.62;99396.56;4944868;28;20102;-84
2022/10/17 03:30:40;;;;;;;7.75;2.78;;;;;;;7.34;92.37;99525.44;4946154;28;20048;-84
2022/10/17 03:33:10;;;;;;;2.95;1.80;;;;;;;6.56;91.04;99416.59;4948605;28;20040;-84
2022/10/17 03:35:43;;;;;;;6.53;2.50;;;;;;;6.56;86.98;99439.94;4948446;28;20044;-83
2022/10/17 03:38:14;;;;;;;7.85;2.60;;;;;;;6.24;87.76;99397.09;4952950;28;20045;-84
2022/10/17 03:40:45;;;;;;;2.75;1.60;;;;;;;6.51;85.82;99441.75;4949038;28;20052;-84
2022/10/17 03:43:16;;;;;;;3.60;2.10;;;;;;;6.75;85.36;99474.31;4948966;28;20254;-84
2022/10/17 03:45:47;;;;;;;3.35;2.47;;;;;;;6.85;87.56;99474.16;4949003;28;20036;-84
2022/10/17 03:48:18;;;;;;;4.45;4.03;;;;;;;6.96;87.57;99486.13;4948435;28;20118;-83
2022/10/17 03:50:50;;;;;;;5.63;2.85;;;;;;;6.87;87.54;99461.19;4948352;28;20347;-83
2022/10/17 03:53:21;;;;;;;4.30;1.77;;;;;;;7.11;87.58;99491.13;4948604;28;20101;-84
2022/10/17 03:55:52;;;;;;;1.85;1.40;;;;;;;6.97;86.51;99447.19;4948019;28;20048;-84
2022/10/17 03:58:23;;;;;;;2.15;1.38;;;;;;;7.17;86.77;99454.66;4947842;28;20049;-84
2022/10/17 04:00:53;;;;;;;1.42;0.98;;;;;;;7.22;86.95;99452.84;4954554;28;20057;-83
2022/10/17 04:03:24;;;;;;;2.03;1.50;;;;;;;6.61;86.28;99371.50;4949482;28;20041;-83
2022/10/17 04:06:00;;;;;;;2.00;1.20;;;;;;;7.15;86.06;99440.84;4947908;28;20162;-84
2022/10/17 04:08:31;;;;;;;1.55;1.20;;;;;;;7.23;85.90;99433.78;4946759;28;20048;-85
2022/10/17 04:11:06;;;;;;;5.75;1.83;;;;;;;6.65;86.58;99305.69;4947592;28;20040;-84
2022/10/17 04:13:39;;;;;;;1.85;1.50;;;;;;;7.65;87.40;99446.09;4937194;28;20267;-84
2022/10/17 04:16:15;;;;;;;2.00;1.30;;;;;;;7.65;87.81;99410.53;4944914;28;20074;-84
2022/10/17 04:18:46;;;;;;;3.58;1.65;;;;;;;7.05;86.53;99314.59;4937863;28;20044;-83
2022/10/17 04:21:23;;;;;;;4.47;1.85;;;;;;;7.78;86.72;99406.81;4944128;28;20264;-84
2022/10/17 04:24:01;;;;;;;1.80;1.20;;;;;;;7.69;86.38;99407.00;4931002;28;20145;-83
2022/10/17 04:26:32;;;;;;;4.05;1.25;;;;;;;7.86;85.60;99413.63;4950566;28;20412;-84
2022/10/17 04:29:03;;;;;;;2.60;1.42;;;;;;;7.46;85.06;99372.75;4939964;28;20065;-84
2022/10/17 04:31:34;;;;;;;3.95;1.30;;;;;;;7.51;85.76;99365.72;4946422;28;20254;-84
2022/10/17 04:34:04;;;;;;;3.17;1.60;;;;;;;7.33;86.37;99357.38;4943512;28;20097;-84
2022/10/17 04:36:37;;;;;;;4.80;1.88;;;;;;;7.89;87.47;99444.78;4940946;28;20123;-84
2022/10/17 04:39:08;;;;;;;2.00;1.30;;;;;;;7.72;87.17;99421.69;4941434;28;20054;-84
2022/10/17 04:41:39;;;;;;;2.60;1.30;;;;;;;7.51;86.84;99391.72;4940966;28;20047;-85
2022/10/17 04:44:12;;;;;;;3.80;2.30;;;;;;;7.60;86.18;99417.56;4941413;28;20056;-84
2022/10/17 04:46:42;;;;;;;2.17;1.60;;;;;;;7.60;86.46;99412.34;4941760;28;20244;-83
2022/10/17 04:49:13;;;;;;;5.22;1.80;;;;;;;7.63;85.60;99448.69;4957156;28;20058;-82
2022/10/17 04:51:46;;;;;;;3.30;1.90;;;;;;;7.60;85.54;99438.34;4963701;28;20053;-83
2022/10/17 04:54:17;;;;;;;4.50;1.60;;;;;;;7.47;86.20;99408.28;4960347;28;20066;-83
2022/10/17 04:56:48;;;;;;;2.08;1.50;;;;;;;7.62;86.37;99431.41;4960488;28;20055;-82
2022/10/17 04:59:19;;;;;;;2.85;1.65;;;;;;;7.54;86.39;99444.53;4960118;28;20062;-83
2022/10/17 05:01:50;;;;;;;3.13;1.67;;;;;;;7.28;85.05;99405.97;4960615;28;20101;-82
2022/10/17 05:04:21;;;;;;;3.05;2.20;;;;;;;7.20;85.42;99355.88;4960531;28;20116;-83
2022/10/17 05:06:55;;;;;;;4.63;2.53;;;;;;;7.48;86.09;99391.78;4956622;28;20054;-83
2022/10/17 05:09:26;;;;;;;3.40;2.15;;;;;;;7.57;85.61;99392.47;4960560;28;20119;-83
2022/10/17 05:11:57;;;;;;;5.95;2.05;;;;;;;7.33;85.27;99367.75;4960607;28;20497;-83
2022/10/17 05:14:28;;;;;;;2.50;2.00;;;;;;;7.12;84.26;99343.03;4960871;28;20054;-83
2022/10/17 05:16:59;;;;;;;5.10;2.58;;;;;;;7.48;83.64;99396.97;4960229;28;20042;-83
2022/10/17 05:19:30;;;;;;;4.45;2.78;;;;;;;7.62;83.80;99410.59;4960281;28;20398;-83
2022/10/17 05:22:02;;;;;;;3.28;2.28;;;;;;;7.03;82.78;99331.94;4960314;28;20062;-84
2022/10/17 05:24:33;;;;;;;6.85;3.10;;;;;;;7.34;83.04;99364.28;4958572;28;20045;-82
2022/10/17 05:27:04;;;;;;;7.30;3.25;;;;;;;7.68;83.05;99415.66;4965858;28;20050;-82
2022/10/17 05:29:36;;;;;;;2.88;1.92;;;;;;;7.68;82.96;99415.66;4959930;28;20051;-83
2022/10/17 05:32:10;;;;;;;2.83;1.83;;;;;;;7.40;83.24;99347.72;4959959;28;20040;-83
2022/10/17 05:42:50;;;;;;;4.78;2.05;;;;;;;7.59;84.13;99363.88;4872614;28;20053;-88
2022/10/17 05:45:56;;;;;;;4.68;2.65;;;;;;;7.96;83.62;99425.56;4841378;28;20215;-86
2022/10/17 05:48:47;;;;;;;4.22;1.95;;;;;;;7.54;83.96;99370.88;4828505;28;20038;-88
2022/10/17 05:51:49;;;;;;;6.38;1.80;;;;;;;7.76;83.92;99377.41;4845273;28;20093;-88
2022/10/17 05:54:41;;;;;;;4.45;1.77;;;;;;;8.15;82.79;99393.09;4851460;28;20056;-88
2022/10/17 05:57:41;;;;;;;2.70;1.58;;;;;;;7.71;81.09;99309.03;4834339;28;20406;-88
2022/10/17 06:06:43;;;;;;;4.03;2.53;;;;;;;8.10;81.94;99396.69;4821604;28;20042;-87
2022/10/17 06:09:23;;;;;;;4.80;2.83;;;;;;;8.11;81.40;99430.50;4832334;28;20040;-88
2022/10/17 07:53:12;;;;;;;;;;;;;;;;;;;;;
2022/10/17 08:02:22;;;;;;;4.80;3.10;;;;;;;5.03;83.41;99406.94;4607918;29;20086;-85
2022/10/17 08:04:56;;;;;;;6.80;2.90;;;;;;;4.75;83.67;99391.63;4658832;29;20060;-84
2022/10/17 08:07:42;;;;;;;8.50;3.00;;;;;;;4.03;84.10;99305.84;4706237;29;20193;-85
2022/10/17 08:10:26;;;;;;;19.42;7.70;;;;;;;4.39;85.14;99397.00;4726405;29;20062;-84
2022/10/17 08:13:12;;;;;;;42.00;17.90;;;;;;;4.20;86.17;99385.91;4725497;29;20065;-84
2022/10/17 08:15:43;;;;;;;;;;;;;;;4.32;86.88;99397.03;4740604;29;20096;-84
2022/10/17 08:18:17;;;;;;;11.35;5.88;;;;;;;4.14;87.20;99368.66;4789188;29;19935;-83
2022/10/17 08:20:48;;;;;;;8.68;4.68;;;;;;;3.74;87.17;99319.72;4812588;29;20363;-85
2022/10/17 08:23:30;;;;;;;8.48;4.60;;;;;;;3.46;87.39;99288.84;4808426;29;20051;-84
2022/10/17 08:26:09;;;;;;;5.10;3.42;;;;;;;4.25;87.44;99400.53;4817645;29;20050;-83
2022/10/17 08:28:51;;;;;;;7.70;5.18;;;;;;;3.61;87.31;99323.25;4819826;28;20050;-84
2022/10/17 08:31:53;;;;;;;11.15;5.22;;;;;;;4.17;87.35;99412.63;4910595;28;20044;-86
2022/10/17 08:34:33;;;;;;;7.18;4.88;;;;;;;3.97;87.90;99384.28;4934308;28;20044;-83
2022/10/17 08:44:11;;;;;;;31.08;14.25;;;;;;;3.76;87.20;99416.19;4834902;28;20042;-85
2022/10/17 08:46:59;;;;;;;29.53;14.07;;;;;;;3.61;88.26;99421.41;4844459;28;20052;-86
2022/10/17 08:49:47;;;;;;;41.58;17.98;;;;;;;2.83;88.72;99298.44;4818417;28;20282;-85
2022/10/17 08:52:33;;;;;;;22.40;10.90;;;;;;;3.21;88.99;99380.13;4823102;28;20085;-82
2022/10/17 08:55:16;;;;;;;32.65;16.55;;;;;;;2.51;89.22;99263.19;4831555;28;20047;-83
2022/10/17 08:57:52;;;;;;;24.75;13.13;;;;;;;3.28;89.91;99397.34;4832347;28;20046;-83
2022/10/17 09:00:29;;;;;;;10.88;5.47;;;;;;;3.13;90.40;99376.69;4835908;28;20056;-84
2022/10/17 09:03:17;;;;;;;9.15;4.88;;;;;;;3.29;90.44;99431.75;4884058;28;20571;-82
2022/10/17 09:05:54;;;;;;;8.80;4.60;;;;;;;3.02;90.56;99389.59;4890373;28;20055;-84
2022/10/17 09:08:41;;;;;;;6.45;4.40;;;;;;;2.46;90.68;99321.63;4878172;28;20041;-83
2022/10/17 09:11:26;;;;;;;6.45;4.25;;;;;;;2.86;91.07;99367.25;4891028;28;20443;-82
2022/10/17 09:14:15;;;;;;;9.63;4.90;;;;;;;2.55;91.26;99347.44;4890546;28;20187;-82
2022/10/17 09:24:39;;;;;;;26.92;13.95;;;;;;;2.90;91.45;99424.00;4907639;27;20059;-83
2022/10/17 09:28:17;;;;;;;50.50;25.55;;;;;;;2.31;91.23;99344.81;4928493;28;20105;-83
2022/10/17 09:31:13;;;;;;;37.00;17.60;;;;;;;1.97;91.45;99326.66;4942474;28;20044;-82
2022/10/17 09:33:57;;;;;;;11.13;6.90;;;;;;;2.40;91.99;99429.03;4934801;28;20317;-81
2022/10/17 09:36:42;;;;;;;11.40;7.38;;;;;;;1.67;92.29;99318.00;4950958;27;20045;-82
2022/10/17 09:39:19;;;;;;;12.18;7.63;;;;;;;2.49;92.98;99435.09;4934313;28;20046;-82
2022/10/17 09:42:08;;;;;;;11.45;8.07;;;;;;;1.58;92.83;99294.78;4944899;27;20107;-83
2022/10/17 09:44:48;;;;;;;14.13;7.82;;;;;;;2.13;93.25;99416.06;4917006;27;20068;-83
2022/10/17 09:51:40;;;;;;;8.32;4.80;;;;;;;1.56;93.10;99309.34;4885400;28;20049;-86
2022/10/17 09:55:00;;;;;;;8.13;5.25;;;;;;;2.40;93.81;99440.25;4883515;28;20113;-85
2022/10/17 09:58:04;;;;;;;9.38;6.22;;;;;;;2.52;93.51;99481.53;4876581;28;20318;-85
2022/10/17 10:00:59;;;;;;;10.95;6.35;;;;;;;2.07;94.08;99421.22;4869032;28;20107;-86
2022/10/17 10:04:19;;;;;;;27.42;13.43;;;;;;;1.57;93.71;99325.66;4860796;28;20084;-86
2022/10/17 10:07:29;;;;;;;18.20;7.30;;;;;;;1.86;94.07;99380.72;4896897;28;20043;-86
2022/10/17 10:11:02;;;;;;;13.13;6.72;;;;;;;1.83;94.18;99338.66;4974021;28;20055;-86
2022/10/17 10:14:35;;;;;;;14.48;6.28;;;;;;;3.01;94.82;99546.16;4919533;28;20073;-86
2022/10/17 10:17:42;;;;;;;11.80;6.30;;;;;;;3.03;94.31;99536.72;4938071;28;20059;-81
2022/10/17 10:23:38;;;;;;;8.15;5.13;;;;;;;2.88;93.81;99512.59;4919612;28;20044;-82
2022/10/17 10:26:28;;;;;;;7.40;4.97;;;;;;;2.81;92.90;99509.13;4960454;28;20037;-83
2022/10/17 10:29:12;;;;;;;8.20;4.13;;;;;;;3.03;92.14;99572.84;4926176;28;20052;-82
2022/10/17 10:31:52;;;;;;;;;;;;;;;3.12;91.71;99540.16;4941172;28;20075;-83
2022/10/17 10:38:02;;;;;;;6.40;3.28;;;;;;;2.64;90.14;99438.56;4939746;28;20047;-84
2022/10/17 10:40:50;;;;;;;8.70;4.95;;;;;;;2.19;89.58;99337.03;4912560;28;20344;-83
2022/10/17 10:44:05;;;;;;;26.80;10.57;;;;;;;2.40;90.55;99357.72;4908200;28;20330;-85
2022/10/17 10:50:47;;;;;;;7.30;4.13;;;;;;;3.09;90.67;99473.91;4931854;28;20064;-86
2022/10/17 10:53:33;;;;;;;6.07;3.50;;;;;;;3.37;90.92;99505.78;4931292;28;20115;-82
2022/10/17 10:56:18;;;;;;;6.05;3.88;;;;;;;3.41;91.30;99520.41;4941174;28;20105;-81
2022/10/17 10:58:56;;;;;;;4.88;3.45;;;;;;;3.37;91.14;99535.91;4947212;28;20067;-83
2022/10/17 11:01:32;;;;;;;;;;;;;;;3.35;91.12;99517.84;4938882;28;20082;-83
2022/10/17 11:04:18;;;;;;;9.88;5.68;;;;;;;2.84;91.90;99431.72;4952350;28;19928;-80
2022/10/17 11:14:41;;;;;;;6.90;3.92;;;;;;;2.91;92.27;99443.78;4689185;29;20244;-81
2022/10/17 11:17:23;;;;;;;5.35;3.88;;;;;;;2.88;92.20;99442.94;4698212;29;20062;-80
2022/10/17 11:20:04;;;;;;;8.05;4.10;;;;;;;2.82;92.83;99438.59;4705928;29;20360;-80
2022/10/17 11:22:42;;;;;;;6.57;4.00;;;;;;;3.12;92.66;99493.69;4704422;29;20337;-79
2022/10/17 11:25:31;;;;;;;6.82;4.20;;;;;;;3.16;91.97;99516.09;4714189;29;20065;-82
2022/10/17 11:28:04;;;;;;;;;;;;;;;3.44;91.88;99545.38;4710509;29;20055;-81
2022/10/17 11:30:49;;;;;;;;;;;;;;;3.48;92.02;99556.59;4711965;29;19970;-80
2022/10/17 11:33:25;;;;;;;;;;;;;;;3.49;92.16;99550.56;4742587;28;19924;-82
2022/10/17 11:36:00;;;;;;;;;;;;;;;3.54;92.11;99548.84;4794380;28;19919;-81
2022/10/17 11:38:37;;;;;;;;;;;;;;;3.56;91.84;99544.53;4852622;28;19988;-79
2022/10/17 11:41:11;;;;;;;;;;;;;;;3.56;91.23;99547.13;4869854;28;20193;-81
2022/10/17 11:44:01;;;;;;;;;;;;;;;3.61;90.63;99542.81;4861367;28;19925;-81
2022/10/17 11:46:35;;;;;;;;;;;;;;;3.65;90.17;99544.56;4878733;27;19926;-79
2022/10/17 11:49:11;;;;;;;;;;;;;;;3.63;89.49;99546.25;4973294;27;19954;-81
2022/10/17 11:51:52;;;;;;;;;;;;;;;3.60;89.10;99548.84;4969180;27;19915;-80
2022/10/17 11:54:35;;;;;;;;;;;;;;;3.62;88.86;99547.09;4974824;27;19923;-80
2022/10/17 11:57:19;;;;;;;;;;;;;;;3.52;88.35;99560.88;4969513;27;20225;-80
2022/10/17 12:00:07;;;;;;;;;;;;;;;3.45;88.32;99555.72;4966585;27;20011;-80
2022/10/17 12:03:13;;;;;;;;;;;;;;;3.40;88.57;99567.78;4967718;27;20311;-80
2022/10/17 12:06:02;;;;;;;;;;;;;;;3.57;89.89;99569.50;4965270;27;20324;-81
2022/10/17 12:08:48;;;;;;;;;;;;;;;3.63;90.01;99564.34;4976595;27;19937;-82
2022/10/17 12:11:25;;;;;;;;;;;;;;;3.68;90.48;99554.88;4960226;27;19969;-82
2022/10/17 12:13:59;;;;;;;;;;;;;;;3.78;90.47;99559.19;4957519;27;20233;-80
2022/10/17 12:16:40;;;;;;;;;;;;;;;3.76;88.99;99560.91;4967083;27;19976;-81
2022/10/17 12:19:29;;;;;;;;;;;;;;;3.83;88.92;99557.47;4986107;27;20456;-82
2022/10/17 12:22:18;;;;;;;;;;;;;;;3.87;88.48;99554.03;4968450;27;19932;-80
2022/10/17 12:24:59;;;;;;;;;;;;;;;3.85;88.92;99549.72;4974383;27;19923;-82
2022/10/17 12:30:56;;;;;;;;;;;;;;;3.73;88.78;99540.22;4920373;28;19979;-81
2022/10/17 12:33:37;;;;;;;;;;;;;;;3.72;89.45;99543.69;4793006;28;20306;-81
2022/10/17 12:36:39;;;;;;;;;;;;;;;3.68;89.26;99547.13;4853494;28;20325;-81
2022/10/17 12:40:04;;;;;;;7.28;5.03;;;;;;;2.79;88.01;99469.56;4892007;28;20291;-81
2022/10/17 12:51:09;;;;;;;;;;;;;;;;;;;;;
2022/10/17 12:54:24;;;;;;;5.75;3.88;;;;;;;2.67;90.30;99511.69;4930207;28;20064;-85
2022/10/17 12:58:01;;;;;;;5.10;3.30;;;;;;;2.04;91.16;99462.41;4948862;28;20090;-85
2022/10/17 13:01:17;;;;;;;4.18;3.20;;;;;;;2.22;91.58;99486.53;4870838;28;20052;-87
2022/10/17 13:03:54;;;;;;;3.20;2.72;;;;;;;2.51;92.07;99540.84;4834994;28;20069;-81
2022/10/17 13:06:28;;;;;;;4.53;3.22;;;;;;;2.83;92.83;99564.19;4903458;28;20053;-80
2022/10/17 13:09:06;;;;;;;4.57;3.03;;;;;;;2.48;92.98;99495.25;4742119;28;4105675;-81
2022/10/17 13:11:41;;;;;;;7.20;3.55;;;;;;;2.72;93.11;99524.56;4889032;28;20054;-80
2022/10/17 13:14:16;;;;;;;4.68;3.47;;;;;;;2.59;92.44;99524.53;4884719;28;20057;-80
2022/10/17 13:16:56;;;;;;;10.07;3.70;;;;;;;2.72;92.23;99571.00;4872216;28;20050;-80
2022/10/17 13:19:32;;;;;;;5.53;4.18;;;;;;;2.63;92.29;99555.50;4872467;28;20038;-81
2022/10/17 13:22:05;;;;;;;4.47;3.60;;;;;;;2.41;92.81;99488.34;4870641;28;20087;-80
2022/10/17 13:24:41;;;;;;;10.07;3.70;;;;;;;2.53;92.70;99529.66;4866551;28;20096;-81
2022/10/17 13:27:26;;;;;;;8.63;3.70;;;;;;;2.35;92.48;99499.50;4886674;28;20105;-81
2022/10/17 13:30:00;;;;;;;4.38;3.47;;;;;;;2.20;92.79;99477.94;4877990;28;20107;-80
2022/10/17 13:32:38;;;;;;;5.80;3.45;;;;;;;2.12;92.67;99486.53;4888387;28;20333;-80
2022/10/17 13:35:12;;;;;;;5.38;3.40;;;;;;;2.69;92.94;99582.16;4878546;28;20073;-81
2022/10/17 13:37:44;;;;;;;5.13;3.55;;;;;;;2.61;92.57;99577.84;4890241;28;20109;-80
2022/10/17 13:40:25;;;;;;;4.80;3.80;;;;;;;2.56;92.73;99578.66;4894710;28;20075;-81
2022/10/17 13:43:20;;;;;;;4.72;3.17;;;;;;;2.09;92.27;99514.81;4884470;28;20045;-81
2022/10/17 13:45:55;;;;;;;6.20;3.58;;;;;;;1.75;92.62;99454.53;4889333;28;20104;-81
2022/10/17 13:48:37;;;;;;;8.38;3.70;;;;;;;1.94;92.64;99497.56;4890623;28;20065;-81
2022/10/17 13:51:09;;;;;;;6.82;3.83;;;;;;;2.22;92.63;99569.03;4891300;28;20055;-82
2022/10/17 13:53:42;;;;;;;7.43;4.28;;;;;;;1.51;92.76;99455.22;4890893;28;20049;-81
2022/10/17 13:56:21;;;;;;;9.20;4.15;;;;;;;1.90;92.77;99515.59;4887289;28;20066;-81
2022/10/17 13:59:00;;;;;;;21.23;6.28;;;;;;;1.45;92.27;99476.63;4880979;28;20284;-81
2022/10/17 14:01:33;;;;;;;20.48;7.72;;;;;;;2.06;92.44;99574.09;4891082;28;20053;-81
2022/10/17 14:04:04;;;;;;;19.17;7.32;;;;;;;1.53;92.41;99468.97;4885328;28;20066;-80
2022/10/17 14:14:31;;;;;;;63.80;17.48;;;;;;;1.19;92.65;99468.69;4887693;28;20070;-83
2022/10/17 14:17:27;;;;;;;57.05;16.75;;;;;;;1.75;92.68;99578.16;4878699;28;20053;-83
2022/10/17 14:20:04;;;;;;;41.13;11.85;;;;;;;1.66;92.60;99563.47;4880148;28;20083;-81
2022/10/17 14:22:56;;;;;;;19.58;6.25;;;;;;;1.69;92.39;99594.41;4869900;28;20099;-81
2022/10/17 14:25:46;;;;;;;6.68;3.40;;;;;;;1.31;92.11;99559.72;4879969;28;20351;-81
2022/10/17 14:28:18;;;;;;;5.57;3.40;;;;;;;1.39;92.55;99597.56;4890558;28;20080;-83
2022/10/17 14:30:53;;;;;;;4.32;3.22;;;;;;;1.08;92.96;99562.94;4890349;28;20111;-81
2022/10/17 14:33:30;;;;;;;7.88;3.72;;;;;;;1.40;93.24;99621.56;4880518;28;20116;-83
2022/10/17 14:36:02;;;;;;;7.15;3.20;;;;;;;0.97;93.23;99559.38;4890499;28;20053;-81
2022/10/17 14:38:34;;;;;;;7.75;3.30;;;;;;;1.04;93.36;99581.75;4887363;28;20580;-81
2022/10/17 14:41:09;;;;;;;6.10;3.03;;;;;;;0.72;93.45;99528.22;4890424;28;20052;-82
2022/10/17 14:44:03;;;;;;;6.68;2.83;;;;;;;0.60;93.37;99522.94;4879905;28;20432;-81
2022/10/17 14:46:37;;;;;;;4.50;2.80;;;;;;;0.45;93.17;99502.19;4884002;28;20053;-81
2022/10/17 14:49:22;;;;;;;6.85;3.33;;;;;;;0.55;93.49;99555.44;4890107;28;20068;-80
2022/10/17 14:52:29;;;;;;;5.95;3.03;;;;;;;0.72;93.80;99595.09;4875154;28;20042;-81
2022/10/17 14:55:13;;;;;;;7.13;2.83;;;;;;;0.00;93.97;99499.06;4889310;28;20046;-81
2022/10/17 14:57:46;;;;;;;5.57;3.25;;;;;;;0.55;95.51;99588.84;4876864;28;20058;-82
2022/10/17 15:00:18;;;;;;;5.10;2.83;;;;;;;0.14;95.65;99548.06;4889825;28;20053;-81
2022/10/17 15:02:51;;;;;;;4.63;2.70;;;;;;;-0.11;96.18;99486.06;4888382;28;20090;-81
2022/10/17 15:05:24;;;;;;;6.68;3.05;;;;;;;0.05;96.11;99511.94;4889480;28;20045;-81
2022/10/17 15:07:55;;;;;;;4.20;2.88;;;;;;;0.09;96.27;99508.59;4879572;28;20054;-81
2022/10/17 15:10:35;;;;;;;6.90;2.90;;;;;;;-0.14;96.17;99490.31;4889550;28;20388;-81
2022/10/17 15:13:05;;;;;;;;;;;;;;;0.65;96.45;99601.03;4879983;28;20045;-82
2022/10/17 15:15:56;;;;;;;6.07;2.72;;;;;;;0.61;96.27;99612.94;4878801;28;19917;-82
2022/10/17 15:18:27;;;;;;;6.15;2.72;;;;;;;0.19;96.30;99566.97;4889989;28;20109;-82
2022/10/17 15:21:00;;;;;;;3.58;2.55;;;;;;;0.38;96.53;99563.81;4889422;28;20049;-81
2022/10/17 15:23:46;;;;;;;4.25;2.78;;;;;;;0.84;97.15;99620.94;4878878;28;20051;-81
2022/10/17 15:26:19;;;;;;;3.75;2.75;;;;;;;0.52;96.70;99568.25;4889441;28;20257;-82
2022/10/17 15:28:51;;;;;;;3.45;2.92;;;;;;;0.83;96.36;99601.25;4889696;28;20053;-82
2022/10/17 15:31:23;;;;;;;3.85;2.70;;;;;;;0.53;95.87;99554.59;4889061;28;20087;-82
2022/10/17 15:33:54;;;;;;;4.53;2.45;;;;;;;0.66;94.84;99610.44;4882295;28;20065;-81
2022/10/17 15:36:29;;;;;;;4.28;2.70;;;;;;;0.07;94.93;99546.22;4889620;28;20113;-81
2022/10/17 15:39:02;;;;;;;6.60;2.60;;;;;;;0.43;95.25;99644.41;4888657;28;20241;-81
2022/10/17 15:41:33;;;;;;;3.30;2.60;;;;;;;-0.16;95.00;99559.59;4889085;28;20057;-81
2022/10/17 15:44:04;;;;;;;3.33;2.20;;;;;;;-0.30;95.32;99576.47;4881800;28;20055;-81
2022/10/17 15:46:36;;;;;;;3.53;2.45;;;;;;;-0.12;96.04;99615.31;4889359;28;20049;-81
2022/10/17 15:49:12;;;;;;;3.47;2.75;;;;;;;-0.51;96.45;99511.13;4889432;28;20052;-81
2022/10/17 15:51:44;;;;;;;3.17;2.33;;;;;;;-0.39;96.41;99540.41;4889428;28;20137;-81
2022/10/17 15:54:20;;;;;;;4.72;2.30;;;;;;;0.22;96.50;99618.38;4879433;28;20072;-81
2022/10/17 15:56:56;;;;;;;3.58;2.20;;;;;;;-0.21;96.83;99556.09;4889179;28;20108;-82
2022/10/17 15:59:31;;;;;;;3.13;2.10;;;;;;;-0.25;96.70;99526.06;4878837;28;20345;-81
2022/10/17 16:02:02;;;;;;;2.28;1.80;;;;;;;0.40;96.21;99644.38;4889455;28;20272;-82
2022/10/17 16:04:33;;;;;;;2.88;2.00;;;;;;;0.34;96.40;99631.41;4888739;28;20053;-81
2022/10/17 16:07:06;;;;;;;2.30;1.80;;;;;;;-0.20;96.27;99564.66;4895262;28;20058;-81
2022/10/17 16:09:39;;;;;;;2.97;1.85;;;;;;;0.30;96.66;99632.25;4889023;28;20045;-81
2022/10/17 16:12:16;;;;;;;2.38;1.60;;;;;;;-0.18;96.79;99551.00;4888724;28;20053;-81
2022/10/17 16:14:47;;;;;;;2.72;2.00;;;;;;;0.52;97.55;99642.81;4879161;28;20088;-81
2022/10/17 16:17:18;;;;;;;7.63;1.73;;;;;;;0.75;97.26;99662.00;4889282;28;20072;-81
2022/10/17 16:19:49;;;;;;;5.50;1.65;;;;;;;0.38;97.03;99589.50;4888318;28;20265;-81
2022/10/17 16:22:25;;;;;;;1.98;1.52;;;;;;;0.71;97.28;99624.22;4888964;28;20049;-82
2022/10/17 16:24:58;;;;;;;1.98;1.35;;;;;;;0.48;97.08;99569.09;4878346;28;20100;-81
2022/10/17 16:27:31;;;;;;;3.42;1.40;;;;;;;0.75;97.17;99631.16;4888909;28;20052;-82
2022/10/17 16:30:02;;;;;;;2.70;1.50;;;;;;;0.89;96.76;99643.31;4888325;28;20053;-81
2022/10/17 16:32:37;;;;;;;3.80;1.40;;;;;;;0.63;97.02;99605.28;4879564;28;20037;-81
2022/10/17 16:35:12;;;;;;;1.50;1.35;;;;;;;0.25;96.92;99546.50;4888402;28;20124;-81
2022/10/17 16:37:45;;;;;;;3.45;1.45;;;;;;;0.78;96.85;99605.47;4887021;28;20061;-81
2022/10/17 16:40:16;;;;;;;5.00;1.67;;;;;;;0.72;96.75;99582.22;4888358;28;20119;-81
2022/10/17 16:42:49;;;;;;;1.45;1.27;;;;;;;0.87;96.75;99620.13;4888017;28;20233;-81
2022/10/17 16:45:22;;;;;;;1.55;1.05;;;;;;;0.82;96.46;99591.81;4887460;28;20045;-81
2022/10/17 16:47:53;;;;;;;2.55;1.20;;;;;;;1.36;96.46;99666.19;4883592;28;20086;-81
2022/10/17 16:50:24;;;;;;;4.82;1.02;;;;;;;1.28;96.50;99628.34;4891062;28;20050;-81
2022/10/17 16:52:57;;;;;;;1.77;1.13;;;;;;;0.73;95.90;99544.53;4887879;28;20341;-81
2022/10/17 16:55:28;;;;;;;1.08;0.98;;;;;;;1.15;95.53;99605.91;4888321;28;20069;-81
2022/10/17 16:58:00;;;;;;;1.83;0.90;;;;;;;1.07;94.94;99607.50;4888398;28;20045;-81